createdAt,value
2023-03-13T00:01:16.674Z,99063.38
2023-03-13T00:03:43.336Z,99061.31
2023-03-13T00:06:11.740Z,99060.91
2023-03-13T00:08:38.999Z,99059.44
2023-03-13T00:11:08.665Z,99058.03
2023-03-13T00:13:35.392Z,99059.66
2023-03-13T00:16:07.363Z,99054.28
2023-03-13T00:18:34.340Z,99045.25
2023-03-13T00:21:14.246Z,99040.91
2023-03-13T00:23:40.950Z,99041.13
2023-03-13T00:26:13.504Z,99037.22
2023-03-13T00:28:41.557Z,99032.03
2023-03-13T00:31:32.113Z,99023.19
2023-03-13T00:34:04.618Z,99028.75
2023-03-13T00:36:34.031Z,99018.63
2023-03-13T00:39:01.150Z,99011.91
2023-03-13T00:41:30.107Z,99010.41
2023-03-13T00:46:26.933Z,99004.63
2023-03-13T00:48:54.194Z,99005.88
2023-03-13T00:51:22.217Z,99003.75
2023-03-13T00:53:48.882Z,99001.94
2023-03-13T00:56:20.690Z,98991.50
2023-03-13T00:58:48.742Z,98991.59
2023-03-13T01:01:24.883Z,98996.34
2023-03-13T01:03:54.327Z,98981.38
2023-03-13T01:06:24.339Z,98980.00
2023-03-13T01:08:51.775Z,98976.19
2023-03-13T01:11:27.686Z,98968.63
2023-03-13T01:13:59.551Z,98971.41
2023-03-13T01:16:27.549Z,98971.66
2023-03-13T01:18:56.469Z,98967.78
2023-03-13T01:21:25.136Z,98958.44
2023-03-13T01:23:52.978Z,98966.69
2023-03-13T01:26:21.411Z,98963.78
2023-03-13T01:28:48.672Z,98956.19
2023-03-13T01:31:30.273Z,98950.38
2023-03-13T01:33:59.486Z,98951.00
2023-03-13T01:36:27.347Z,98937.56
2023-03-13T01:38:57.042Z,98938.59
2023-03-13T01:41:24.943Z,98925.97
2023-03-13T01:43:51.822Z,98931.19
2023-03-13T01:46:25.340Z,98927.88
2023-03-13T01:48:58.653Z,98940.75
2023-03-13T01:51:46.058Z,98928.09
2023-03-13T01:54:20.681Z,98925.38
2023-03-13T01:56:50.808Z,98923.38
2023-03-13T01:59:22.646Z,98906.13
2023-03-13T02:01:51.242Z,98910.16
2023-03-13T02:04:20.145Z,98905.22
2023-03-13T02:06:50.640Z,98898.16
2023-03-13T02:09:24.683Z,98903.28
2023-03-13T02:14:28.197Z,98883.34
2023-03-13T02:16:56.331Z,98881.34
2023-03-13T02:19:45.642Z,98881.63
2023-03-13T02:22:32.496Z,98871.91
2023-03-13T02:25:20.950Z,98873.72
2023-03-13T02:27:48.611Z,98857.22
2023-03-13T02:30:15.959Z,98864.84
2023-03-13T02:32:43.930Z,98867.56
2023-03-13T02:35:14.426Z,98850.97
2023-03-13T02:37:50.065Z,98854.34
2023-03-13T02:40:24.488Z,98847.03
2023-03-13T02:42:53.756Z,98843.31
2023-03-13T02:45:20.493Z,98838.03
2023-03-13T02:47:47.187Z,98824.50
2023-03-13T02:50:14.779Z,98827.28
2023-03-13T02:52:51.469Z,98829.03
2023-03-13T02:55:24.954Z,98830.72
2023-03-13T02:57:51.950Z,98822.44
2023-03-13T03:00:19.054Z,98814.41
2023-03-13T03:02:45.889Z,98815.88
2023-03-13T03:05:13.855Z,98809.25
2023-03-13T03:07:40.559Z,98815.88
2023-03-13T03:10:07.874Z,98820.38
2023-03-13T03:12:34.859Z,98818.50
2023-03-13T03:15:01.652Z,98817.22
2023-03-13T03:17:28.328Z,98804.97
2023-03-13T03:19:55.048Z,98809.13
2023-03-13T03:22:21.943Z,98815.28
2023-03-13T03:24:48.810Z,98815.25
2023-03-13T03:27:15.628Z,98810.31
2023-03-13T03:29:42.301Z,98808.63
2023-03-13T03:32:09.056Z,98804.59
2023-03-13T03:34:39.631Z,98803.03
2023-03-13T03:37:06.377Z,98802.81
2023-03-13T03:39:42.578Z,98792.63
2023-03-13T03:42:10.020Z,98791.81
2023-03-13T03:44:36.693Z,98790.97
2023-03-13T03:47:03.385Z,98793.56
2023-03-13T03:49:31.082Z,98792.34
2023-03-13T03:54:24.726Z,98775.34
2023-03-13T03:56:51.357Z,98770.88
2023-03-13T03:59:18.113Z,98763.47
2023-03-13T04:01:45.431Z,98758.94
2023-03-13T04:04:16.186Z,98750.28
2023-03-13T04:06:43.040Z,98750.78
2023-03-13T04:09:09.848Z,98749.97
2023-03-13T04:11:36.504Z,98742.97
2023-03-13T04:14:03.229Z,98742.75
2023-03-13T04:16:30.168Z,98736.38
2023-03-13T04:18:56.805Z,98728.88
2023-03-13T04:21:23.782Z,98727.31
2023-03-13T04:23:50.469Z,98715.38
2023-03-13T04:26:17.192Z,98718.25
2023-03-13T04:28:43.878Z,98723.59
2023-03-13T04:31:10.613Z,98717.19
2023-03-13T04:33:37.517Z,98717.78
2023-03-13T04:36:05.068Z,98722.06
2023-03-13T04:38:31.766Z,98717.28
2023-03-13T04:43:24.788Z,98724.09
2023-03-13T04:45:55.295Z,98719.50
2023-03-13T04:48:24.841Z,98711.31
2023-03-13T04:50:51.811Z,98708.00
2023-03-13T04:53:18.498Z,98696.09
2023-03-13T04:55:45.524Z,98695.13
2023-03-13T04:58:12.219Z,98683.84
2023-03-13T05:00:41.300Z,98688.03
2023-03-13T05:03:08.025Z,98694.91
2023-03-13T05:05:35.569Z,98692.63
2023-03-13T05:08:02.701Z,98692.28
2023-03-13T05:10:29.433Z,98692.47
2023-03-13T05:12:56.381Z,98700.19
2023-03-13T05:15:23.270Z,98689.41
2023-03-13T05:17:49.892Z,98684.41
2023-03-13T05:20:19.794Z,98684.09
2023-03-13T05:22:46.523Z,98685.69
2023-03-13T05:25:13.262Z,98684.09
2023-03-13T05:27:40.205Z,98679.63
2023-03-13T05:30:08.315Z,98674.00
2023-03-13T05:32:35.129Z,98673.00
2023-03-13T05:35:02.055Z,98675.69
2023-03-13T05:37:28.969Z,98674.59
2023-03-13T05:39:55.779Z,98672.25
2023-03-13T05:42:22.590Z,98666.53
2023-03-13T05:44:49.292Z,98650.31
2023-03-13T05:47:19.305Z,98651.59
2023-03-13T05:49:46.146Z,98660.41
2023-03-13T05:52:12.795Z,98651.91
2023-03-13T05:54:40.965Z,98641.16
2023-03-13T05:57:07.690Z,98647.88
2023-03-13T05:59:34.462Z,98655.59
2023-03-13T06:02:01.158Z,98654.56
2023-03-13T06:04:27.834Z,98646.16
2023-03-13T06:06:55.740Z,98644.75
2023-03-13T06:09:22.532Z,98633.16
2023-03-13T06:11:49.506Z,98631.16
2023-03-13T06:14:16.212Z,98633.28
2023-03-13T06:16:42.924Z,98622.16
2023-03-13T06:19:09.678Z,98621.63
2023-03-13T06:21:36.622Z,98621.63
2023-03-13T06:24:03.376Z,98619.31
2023-03-13T06:26:30.290Z,98613.13
2023-03-13T06:28:56.951Z,98623.78
2023-03-13T06:31:23.773Z,98624.53
2023-03-13T06:33:56.713Z,98622.66
2023-03-13T06:36:24.746Z,98623.88
2023-03-13T06:38:51.562Z,98632.25
2023-03-13T06:41:18.282Z,98638.72
2023-03-13T06:43:45.036Z,98633.63
2023-03-13T06:46:30.313Z,98635.13
2023-03-13T06:51:26.516Z,98633.94
2023-03-13T06:53:53.411Z,98636.31
2023-03-13T06:56:23.104Z,98620.00
2023-03-13T06:58:50.699Z,98600.78
2023-03-13T07:01:19.225Z,98601.97
2023-03-13T07:03:50.419Z,98596.59
2023-03-13T07:06:18.644Z,98598.94
2023-03-13T07:08:46.095Z,98599.66
2023-03-13T07:11:15.497Z,98589.47
2023-03-13T07:13:42.366Z,98575.56
2023-03-13T07:16:12.608Z,98590.88
2023-03-13T07:18:42.098Z,98589.25
2023-03-13T07:21:10.392Z,98605.63
2023-03-13T07:23:38.814Z,98604.69
2023-03-13T07:26:08.482Z,98614.19
2023-03-13T07:28:37.761Z,98614.19
2023-03-13T07:31:11.822Z,98617.47
2023-03-13T07:33:38.844Z,98615.34
2023-03-13T07:36:06.397Z,98603.97
2023-03-13T07:38:33.349Z,98607.59
2023-03-13T07:41:00.195Z,98609.13
2023-03-13T07:43:27.398Z,98607.81
2023-03-13T07:45:59.767Z,98598.56
2023-03-13T07:48:30.512Z,98607.56
2023-03-13T07:53:25.229Z,98601.09
2023-03-13T07:55:59.669Z,98585.63
2023-03-13T07:58:29.378Z,98583.03
2023-03-13T08:00:56.892Z,98582.69
2023-03-13T08:03:24.529Z,98589.28
2023-03-13T08:05:58.779Z,98593.50
2023-03-13T08:08:25.550Z,98591.81
2023-03-13T08:10:52.254Z,98599.50
2023-03-13T08:13:18.945Z,98601.94
2023-03-13T08:15:45.578Z,98598.53
2023-03-13T08:18:12.420Z,98606.75
2023-03-13T08:20:39.344Z,98603.00
2023-03-13T08:23:06.039Z,98604.97
2023-03-13T08:25:33.448Z,98604.03
2023-03-13T08:28:02.354Z,98602.53
2023-03-13T08:30:29.351Z,98619.06
2023-03-13T08:32:56.015Z,98619.06
2023-03-13T08:35:22.798Z,98614.59
2023-03-13T08:37:49.441Z,98607.97
2023-03-13T08:40:16.245Z,98609.13
2023-03-13T08:42:42.937Z,98613.22
2023-03-13T08:45:10.048Z,98594.28
2023-03-13T08:47:36.864Z,98608.66
2023-03-13T08:50:03.890Z,98601.63
2023-03-13T08:52:30.819Z,98601.63
2023-03-13T08:54:57.456Z,98600.47
2023-03-13T08:57:24.320Z,98598.38
2023-03-13T08:59:51.650Z,98595.25
2023-03-13T09:02:21.021Z,98609.81
2023-03-13T09:04:48.773Z,98592.56
2023-03-13T09:07:16.874Z,98590.00
2023-03-13T09:09:44.606Z,98591.72
2023-03-13T09:12:24.744Z,98599.31
2023-03-13T09:14:56.639Z,98615.69
2023-03-13T09:17:23.313Z,98603.91
2023-03-13T09:19:59.748Z,98603.81
2023-03-13T09:22:24.078Z,98613.06
2023-03-13T09:24:50.729Z,98610.59
2023-03-13T09:27:17.376Z,98609.91
2023-03-13T09:29:44.199Z,98617.94
2023-03-13T09:32:11.462Z,98614.94
2023-03-13T09:34:38.428Z,98612.16
2023-03-13T09:37:05.172Z,98610.03
2023-03-13T09:39:32.983Z,98607.22
2023-03-13T09:42:07.790Z,98593.13
2023-03-13T09:44:44.309Z,98581.28
2023-03-13T09:47:41.227Z,98590.59
2023-03-13T09:50:34.764Z,98586.81
2023-03-13T09:53:14.769Z,98583.88
2023-03-13T09:55:45.824Z,98588.59
2023-03-13T09:58:24.847Z,98587.00
2023-03-13T10:00:57.249Z,98576.09
2023-03-13T10:03:29.449Z,98576.41
2023-03-13T10:05:59.781Z,98556.84
2023-03-13T10:08:36.634Z,98570.59
2023-03-13T10:11:26.097Z,98562.00
2023-03-13T10:14:00.216Z,98547.34
2023-03-13T10:16:47.735Z,98549.34
2023-03-13T10:19:18.877Z,98546.34
2023-03-13T10:21:50.352Z,98542.13
2023-03-13T10:24:55.622Z,98551.09
2023-03-13T10:27:22.341Z,98548.19
2023-03-13T10:29:49.060Z,98547.19
2023-03-13T10:32:17.819Z,98553.59
2023-03-13T10:37:29.125Z,98538.31
2023-03-13T10:39:59.770Z,98534.84
2023-03-13T10:42:36.999Z,98521.06
2023-03-13T10:45:09.693Z,98508.69
2023-03-13T10:47:37.891Z,98507.00
2023-03-13T10:50:04.978Z,98483.16
2023-03-13T10:52:43.709Z,98487.59
2023-03-13T10:55:24.896Z,98492.94
2023-03-13T10:58:00.161Z,98493.56
2023-03-13T11:00:39.106Z,98495.75
2023-03-13T11:03:14.405Z,98502.81
2023-03-13T11:05:45.279Z,98493.53
2023-03-13T11:08:30.808Z,98489.66
2023-03-13T11:10:59.046Z,98475.75
2023-03-13T11:13:38.244Z,98478.44
2023-03-13T11:16:13.839Z,98470.81
2023-03-13T11:18:49.387Z,98475.97
2023-03-13T11:21:28.758Z,98456.38
2023-03-13T11:24:02.367Z,98451.94
2023-03-13T11:26:31.907Z,98455.22
2023-03-13T11:28:59.845Z,98466.31
2023-03-13T11:31:42.071Z,98474.44
2023-03-13T11:34:33.528Z,98456.59
2023-03-13T11:37:12.524Z,98448.19
2023-03-13T11:39:52.697Z,98451.47
2023-03-13T11:42:46.347Z,98433.72
2023-03-13T11:45:21.824Z,98443.28
2023-03-13T11:47:59.861Z,98434.59
2023-03-13T11:50:35.825Z,98422.97
2023-03-13T11:53:20.766Z,98437.41
2023-03-13T11:55:58.953Z,98420.13
2023-03-13T11:58:54.093Z,98415.53
2023-03-13T12:01:26.362Z,98408.91
2023-03-13T12:04:00.199Z,98405.78
2023-03-13T12:06:47.851Z,98386.41
2023-03-13T12:09:19.699Z,98402.66
2023-03-13T12:11:59.828Z,98388.75
2023-03-13T12:14:42.316Z,98395.28
2023-03-13T12:17:33.065Z,98392.50
2023-03-13T12:20:20.268Z,98380.09
2023-03-13T12:23:00.016Z,98368.44
2023-03-13T12:25:55.258Z,98367.91
2023-03-13T12:28:35.407Z,98349.31
2023-03-13T12:31:08.037Z,98358.03
2023-03-13T12:33:35.013Z,98340.28
2023-03-13T12:36:41.700Z,98338.75
2023-03-13T12:39:08.327Z,98328.50
2023-03-13T12:41:48.024Z,98320.84
2023-03-13T12:44:19.553Z,98326.00
2023-03-13T12:46:49.017Z,98314.38
2023-03-13T12:49:39.340Z,98289.06
2023-03-13T12:52:40.575Z,98294.13
2023-03-13T12:55:45.629Z,98295.06
2023-03-13T12:58:27.173Z,98277.06
2023-03-13T13:04:03.512Z,98276.34
2023-03-13T13:06:59.999Z,98274.22
2023-03-13T13:09:34.315Z,98267.22
2023-03-13T13:12:04.477Z,98263.31
2023-03-13T13:14:34.524Z,98268.19
2023-03-13T13:17:16.741Z,98246.94
2023-03-13T13:19:47.824Z,98251.81
2023-03-13T13:22:36.854Z,98247.00
2023-03-13T13:25:28.673Z,98227.84
2023-03-13T13:27:56.152Z,98233.66
2023-03-13T13:30:23.958Z,98209.84
2023-03-13T13:32:55.566Z,98233.00
2023-03-13T13:35:27.043Z,98221.16
2023-03-13T13:37:59.980Z,98214.34
2023-03-13T13:40:32.075Z,98215.81
2023-03-13T13:43:05.707Z,98214.72
2023-03-13T13:45:36.421Z,98206.28
2023-03-13T13:48:20.005Z,98199.72
2023-03-13T13:51:00.101Z,98189.84
2023-03-13T13:53:42.829Z,98206.69
2023-03-13T13:56:28.468Z,98168.25
2023-03-13T13:58:59.933Z,98171.03
2023-03-13T14:01:26.855Z,98164.16
2023-03-13T14:04:02.812Z,98167.13
2023-03-13T14:06:36.165Z,98156.75
2023-03-13T14:09:17.156Z,98164.75
2023-03-13T14:11:46.744Z,98159.00
2023-03-13T14:14:13.407Z,98163.31
2023-03-13T14:16:46.524Z,98149.19
2023-03-13T14:19:34.156Z,98135.75
2023-03-13T14:22:07.162Z,98128.03
2023-03-13T14:24:34.354Z,98116.16
2023-03-13T14:27:01.360Z,98089.91
2023-03-13T14:29:28.484Z,98098.06
2023-03-13T14:31:59.076Z,98075.41
2023-03-13T14:34:29.754Z,98074.00
2023-03-13T14:37:16.850Z,98058.56
2023-03-13T14:39:46.102Z,98072.44
2023-03-13T14:42:15.208Z,98044.47
2023-03-13T14:44:44.194Z,98059.16
2023-03-13T14:47:30.934Z,98039.25
2023-03-13T14:50:02.926Z,98034.56
2023-03-13T14:52:32.005Z,98033.66
2023-03-13T14:55:02.539Z,98017.16
2023-03-13T14:57:30.502Z,98023.94
2023-03-13T14:59:59.988Z,98009.13
2023-03-13T15:02:29.804Z,98006.72
2023-03-13T15:05:00.421Z,97997.53
2023-03-13T15:07:48.285Z,97977.44
2023-03-13T15:10:41.506Z,97988.53
2023-03-13T15:13:24.827Z,97971.59
2023-03-13T15:15:53.229Z,97962.09
2023-03-13T15:18:25.815Z,97964.25
2023-03-13T15:20:59.119Z,97958.28
2023-03-13T15:23:26.389Z,97955.94
2023-03-13T15:25:53.057Z,97945.56
2023-03-13T15:28:23.201Z,97954.63
2023-03-13T15:30:52.216Z,97957.00
2023-03-13T15:33:21.946Z,97934.56
2023-03-13T15:35:50.458Z,97915.72
2023-03-13T15:38:26.198Z,97927.13
2023-03-13T15:40:53.399Z,97927.06
2023-03-13T15:43:21.704Z,97925.84
2023-03-13T15:45:53.842Z,97915.69
2023-03-13T15:48:28.645Z,97898.38
2023-03-13T15:53:27.840Z,97896.41
2023-03-13T15:55:56.059Z,97896.06
2023-03-13T15:58:23.460Z,97883.84
2023-03-13T16:00:50.328Z,97886.53
2023-03-13T16:03:22.850Z,97879.09
2023-03-13T16:05:49.585Z,97867.56
2023-03-13T16:08:34.608Z,97870.63
2023-03-13T16:11:02.432Z,97859.88
2023-03-13T16:13:29.238Z,97852.56
2023-03-13T16:15:56.809Z,97841.91
2023-03-13T16:18:24.889Z,97840.78
2023-03-13T16:20:52.937Z,97841.88
2023-03-13T16:23:19.761Z,97837.03
2023-03-13T16:25:48.797Z,97828.19
2023-03-13T16:28:16.124Z,97825.47
2023-03-13T16:30:48.085Z,97811.56
2023-03-13T16:33:17.876Z,97797.25
2023-03-13T16:35:45.240Z,97792.31
2023-03-13T16:38:12.007Z,97784.97
2023-03-13T16:40:38.858Z,97790.06
2023-03-13T16:43:05.860Z,97786.78
2023-03-13T16:45:32.960Z,97778.19
2023-03-13T16:47:59.651Z,97777.28
2023-03-13T16:50:32.518Z,97768.69
2023-03-13T16:53:00.029Z,97776.94
2023-03-13T16:55:31.645Z,97842.19
2023-03-13T16:57:59.165Z,97975.16
2023-03-13T17:00:30.654Z,97987.47
2023-03-13T17:05:26.591Z,97955.81
2023-03-13T17:07:53.619Z,97942.34
2023-03-13T17:10:25.104Z,97921.25
2023-03-13T17:12:52.082Z,97934.59
2023-03-13T17:15:20.512Z,97916.44
2023-03-13T17:17:52.070Z,97925.44
2023-03-13T17:20:24.801Z,97932.75
2023-03-13T17:22:52.113Z,97941.66
2023-03-13T17:25:19.552Z,97925.44
2023-03-13T17:27:48.655Z,97913.78
2023-03-13T17:30:26.338Z,97920.75
2023-03-13T17:32:53.891Z,97909.91
2023-03-13T17:35:21.222Z,97922.53
2023-03-13T17:37:48.489Z,97921.59
2023-03-13T17:40:24.441Z,97902.28
2023-03-13T17:42:55.324Z,97898.69
2023-03-13T17:45:22.125Z,97912.69
2023-03-13T17:47:54.115Z,97916.13
2023-03-13T17:50:26.554Z,97933.84
2023-03-13T17:52:54.708Z,97888.16
2023-03-13T17:55:25.133Z,97870.47
2023-03-13T17:57:53.479Z,97881.25
2023-03-13T18:00:29.276Z,97876.13
2023-03-13T18:02:56.488Z,97880.19
2023-03-13T18:05:23.234Z,97875.84
2023-03-13T18:07:50.729Z,97876.38
2023-03-13T18:10:29.005Z,97872.66
2023-03-13T18:12:56.570Z,97877.53
2023-03-13T18:15:25.450Z,97865.13
2023-03-13T18:17:52.762Z,97869.41
2023-03-13T18:20:28.132Z,97853.78
2023-03-13T18:23:00.263Z,97859.19
2023-03-13T18:25:28.620Z,97848.44
2023-03-13T18:27:55.942Z,97849.47
2023-03-13T18:30:24.923Z,97819.88
2023-03-13T18:32:51.849Z,97810.72
2023-03-13T18:35:19.107Z,97794.56
2023-03-13T18:37:47.799Z,97793.25
2023-03-13T18:40:26.927Z,97804.25
2023-03-13T18:42:56.876Z,97824.69
2023-03-13T18:45:26.588Z,97826.28
2023-03-13T18:47:54.161Z,97836.47
2023-03-13T18:50:27.531Z,97825.91
2023-03-13T18:52:56.580Z,97817.59
2023-03-13T18:55:25.212Z,97801.16
2023-03-13T18:57:52.857Z,97798.75
2023-03-13T19:00:25.613Z,97815.16
2023-03-13T19:02:53.257Z,97803.47
2023-03-13T19:05:20.884Z,97809.97
2023-03-13T19:07:47.795Z,97803.84
2023-03-13T19:10:27.210Z,97787.97
2023-03-13T19:12:56.140Z,97786.38
2023-03-13T19:15:26.471Z,97780.16
2023-03-13T19:17:56.453Z,97798.75
2023-03-13T19:20:24.495Z,97817.59
2023-03-13T19:22:51.300Z,97810.56
2023-03-13T19:25:22.590Z,97802.94
2023-03-13T19:27:49.918Z,97784.88
2023-03-13T19:30:25.208Z,97782.44
2023-03-13T19:32:52.625Z,97797.50
2023-03-13T19:35:22.353Z,97794.28
2023-03-13T19:37:49.840Z,97807.50
2023-03-13T19:40:29.007Z,97809.38
2023-03-13T19:42:55.708Z,97807.75
2023-03-13T19:45:22.441Z,97809.38
2023-03-13T19:47:49.605Z,97822.84
2023-03-13T19:50:27.829Z,97835.81
2023-03-13T19:52:55.200Z,97830.13
2023-03-13T19:55:24.823Z,97847.16
2023-03-13T19:57:51.608Z,97840.69
2023-03-13T20:00:23.627Z,97832.00
2023-03-13T20:02:52.400Z,97839.00
2023-03-13T20:05:19.289Z,97837.41
2023-03-13T20:07:46.781Z,97834.50
2023-03-13T20:10:13.568Z,97851.97
2023-03-13T20:12:40.746Z,97879.44
2023-03-13T20:15:10.566Z,97898.34
2023-03-13T20:17:37.541Z,97914.81
2023-03-13T20:20:08.572Z,97929.66
2023-03-13T20:22:37.696Z,97977.66
2023-03-13T20:25:04.946Z,97961.06
2023-03-13T20:27:31.727Z,97948.06
2023-03-13T20:32:25.298Z,97959.16
2023-03-13T20:34:52.376Z,97950.63
2023-03-13T20:37:19.058Z,97971.91
2023-03-13T20:39:45.773Z,97925.84
2023-03-13T20:42:13.237Z,97911.19
2023-03-13T20:44:41.030Z,97914.84
2023-03-13T20:47:07.689Z,97927.25
2023-03-13T20:49:34.792Z,97919.94
2023-03-13T20:52:01.521Z,97919.03
2023-03-13T20:54:28.413Z,97916.06
2023-03-13T20:56:56.047Z,97919.88
2023-03-13T20:59:23.580Z,97917.31
2023-03-13T21:01:50.280Z,97929.09
2023-03-13T21:04:17.209Z,97922.06
2023-03-13T21:06:47.026Z,97919.22
2023-03-13T21:09:14.259Z,97906.84
2023-03-13T21:11:40.927Z,97881.44
2023-03-13T21:14:07.715Z,97871.63
2023-03-13T21:16:34.418Z,97830.19
2023-03-13T21:19:01.539Z,97796.78
2023-03-13T21:21:29.439Z,97790.00
2023-03-13T21:23:56.156Z,97780.78
2023-03-13T21:26:23.411Z,97756.34
2023-03-13T21:28:51.200Z,97768.69
2023-03-13T21:31:19.543Z,97768.69
2023-03-13T21:33:47.299Z,97725.53
2023-03-13T21:36:16.162Z,97715.03
2023-03-13T21:38:43.473Z,97717.47
2023-03-13T21:41:13.049Z,97724.72
2023-03-13T21:43:43.672Z,97714.69
2023-03-13T21:46:12.301Z,97694.50
2023-03-13T21:48:40.351Z,97699.56
2023-03-13T21:51:08.078Z,97707.09
2023-03-13T21:53:41.925Z,97726.47
2023-03-13T21:56:09.531Z,97745.22
2023-03-13T21:58:36.193Z,97755.91
2023-03-13T22:01:02.957Z,97769.34
2023-03-13T22:03:35.923Z,97785.00
2023-03-13T22:06:02.749Z,97795.66
2023-03-13T22:08:29.521Z,97781.94
2023-03-13T22:13:25.158Z,97775.94
2023-03-13T22:15:52.916Z,97785.63
2023-03-13T22:18:19.989Z,97784.38
2023-03-13T22:20:46.661Z,97800.22
2023-03-13T22:23:13.702Z,97797.78
2023-03-13T22:25:42.593Z,97790.75
2023-03-13T22:28:10.820Z,97771.25
2023-03-13T22:30:38.960Z,97760.13
2023-03-13T22:33:07.278Z,97741.25
2023-03-13T22:35:35.363Z,97738.00
2023-03-13T22:38:02.100Z,97738.50
2023-03-13T22:40:28.866Z,97744.13
2023-03-13T22:42:55.782Z,97738.50
2023-03-13T22:45:23.315Z,97725.94
2023-03-13T22:47:50.259Z,97715.25
2023-03-13T22:50:17.980Z,97720.03
2023-03-13T22:52:44.806Z,97719.63
2023-03-13T22:55:11.557Z,97719.25
2023-03-13T22:57:38.924Z,97722.22
2023-03-13T23:00:07.768Z,97714.44
2023-03-13T23:02:34.739Z,97706.81
2023-03-13T23:05:01.509Z,97695.38
2023-03-13T23:07:29.907Z,97701.88
2023-03-13T23:12:25.757Z,97702.63
2023-03-13T23:14:53.290Z,97711.25
2023-03-13T23:17:21.095Z,97705.53
2023-03-13T23:19:47.819Z,97703.97
2023-03-13T23:22:18.278Z,97707.97
2023-03-13T23:24:45.193Z,97712.38
2023-03-13T23:27:12.221Z,97712.53
2023-03-13T23:29:39.262Z,97699.03
2023-03-13T23:32:06.716Z,97704.41
2023-03-13T23:34:35.975Z,97686.53
2023-03-13T23:37:02.798Z,97696.03
2023-03-13T23:39:29.980Z,97708.81
2023-03-13T23:41:56.827Z,97715.97
2023-03-13T23:44:23.724Z,97731.25
2023-03-13T23:46:50.466Z,97760.69
2023-03-13T23:49:17.134Z,97770.50
2023-03-13T23:51:43.819Z,97774.50
2023-03-13T23:54:10.467Z,97801.31
2023-03-13T23:56:37.217Z,97816.88
2023-03-13T23:59:03.895Z,97813.41
